Time;durP1;ratioP1;P1;durP2;ratioP2;P2;SDS_P1;SDS_P2;PMS_P1;PMS_P2;Temp;Humidity;BMP_temperature;BMP_pressure;BME280_temperature;BME280_humidity;BME280_pressure;Samples;Min_cycle;Max_cycle;Signal;HPM_P1;HPM_P2
2022/08/28 00:01:55;;;;;;;7.63;2.47;;;19.30;99.90;;;;;;5056349;27;20533;-81
2022/08/28 00:04:22;;;;;;;6.77;2.27;;;19.30;99.90;;;;;;5049383;28;20784;-81
2022/08/28 00:06:49;;;;;;;7.53;3.30;;;19.20;99.90;;;;;;5052692;28;20913;-79
2022/08/28 00:09:16;;;;;;;6.90;2.73;;;19.20;99.90;;;;;;5049950;28;20494;-79
2022/08/28 00:11:43;;;;;;;8.47;2.73;;;19.20;99.90;;;;;;5053341;28;20468;-80
2022/08/28 00:14:12;;;;;;;7.50;2.67;;;19.30;99.90;;;;;;5052188;28;20560;-80
2022/08/28 00:16:39;;;;;;;6.10;2.70;;;19.30;99.90;;;;;;5051657;28;20946;-80
2022/08/28 00:19:06;;;;;;;10.33;3.20;;;19.20;99.90;;;;;;5040577;28;20479;-80
2022/08/28 00:21:33;;;;;;;6.43;3.00;;;19.20;99.90;;;;;;5039693;28;20487;-80
2022/08/28 00:24:00;;;;;;;10.77;4.00;;;19.10;99.90;;;;;;5052295;28;20526;-79
2022/08/28 00:29:12;;;;;;;6.83;3.10;;;19.00;99.90;;;;;;5039709;28;20454;-79
2022/08/28 00:31:39;;;;;;;9.47;3.20;;;19.00;99.90;;;;;;5052322;28;20492;-80
2022/08/28 00:34:07;;;;;;;7.43;3.30;;;18.90;99.90;;;;;;5046049;28;20891;-79
2022/08/28 00:36:34;;;;;;;10.27;3.47;;;18.90;99.90;;;;;;5032253;28;20535;-81
2022/08/28 00:39:02;;;;;;;11.17;4.10;;;18.90;99.90;;;;;;5051413;28;20544;-81
2022/08/28 00:41:31;;;;;;;9.63;3.07;;;18.80;99.90;;;;;;5052391;28;20521;-79
2022/08/28 00:44:08;;;;;;;5.13;2.70;;;18.80;99.90;;;;;;5046593;28;20479;-80
2022/08/28 00:46:37;;;;;;;5.70;2.87;;;18.80;99.90;;;;;;5032501;28;20547;-79
2022/08/28 00:49:05;;;;;;;7.33;2.97;;;18.80;99.90;;;;;;5032326;28;20479;-79
2022/08/28 00:54:17;;;;;;;6.40;2.97;;;18.70;99.90;;;;;;5031743;28;20847;-79
2022/08/28 00:56:46;;;;;;;8.47;3.30;;;18.70;99.90;;;;;;5032322;28;20459;-80
2022/08/28 00:59:16;;;;;;;10.63;3.30;;;18.70;99.90;;;;;;5032086;28;20487;-78
2022/08/28 01:01:45;;;;;;;9.90;3.10;;;18.70;99.90;;;;;;5031869;28;20469;-80
2022/08/28 01:04:14;;;;;;;12.10;3.00;;;18.70;99.90;;;;;;5031908;28;20480;-79
2022/08/28 01:06:41;;;;;;;11.03;3.50;;;18.60;99.90;;;;;;5032639;28;20810;-81
2022/08/28 01:09:10;;;;;;;8.00;3.13;;;18.60;99.90;;;;;;5032706;28;20494;-79
2022/08/28 01:11:39;;;;;;;7.60;3.30;;;18.60;99.90;;;;;;5033624;28;20556;-80
2022/08/28 01:14:07;;;;;;;6.60;2.90;;;18.50;99.90;;;;;;5034709;28;20438;-80
2022/08/28 01:16:35;;;;;;;8.57;3.00;;;18.50;99.90;;;;;;5034039;28;20496;-80
2022/08/28 01:19:09;;;;;;;8.40;3.20;;;18.40;99.90;;;;;;5033523;28;20566;-80
2022/08/28 01:21:42;;;;;;;7.80;2.67;;;18.40;99.90;;;;;;5035792;28;20485;-81
2022/08/28 01:24:15;;;;;;;6.37;3.07;;;18.30;99.90;;;;;;5074803;28;20482;-81
2022/08/28 01:26:43;;;;;;;9.10;3.13;;;18.30;99.90;;;;;;5073249;28;20499;-80
2022/08/28 01:29:11;;;;;;;6.57;3.30;;;18.30;99.90;;;;;;5053674;28;20549;-81
2022/08/28 01:31:40;;;;;;;6.80;3.10;;;18.30;99.90;;;;;;5056424;28;20536;-82
2022/08/28 01:34:09;;;;;;;6.50;3.17;;;18.30;99.90;;;;;;5039005;28;20467;-83
2022/08/28 01:36:36;;;;;;;8.70;3.83;;;18.20;99.90;;;;;;5041836;28;20474;-83
2022/08/28 01:39:06;;;;;;;6.77;2.83;;;18.20;99.90;;;;;;5059203;28;20495;-82
2022/08/28 01:41:38;;;;;;;8.93;2.87;;;18.10;99.90;;;;;;5063057;28;20472;-82
2022/08/28 01:44:05;;;;;;;6.90;3.37;;;18.10;99.90;;;;;;5069512;28;20463;-80
2022/08/28 01:46:32;;;;;;;10.97;3.80;;;18.00;99.90;;;;;;5067349;28;20441;-81
2022/08/28 01:49:00;;;;;;;8.23;3.10;;;18.00;99.90;;;;;;5065511;28;20494;-81
2022/08/28 01:51:27;;;;;;;12.50;3.80;;;17.90;99.90;;;;;;5062839;28;20458;-81
2022/08/28 01:53:54;;;;;;;7.07;3.40;;;17.90;99.90;;;;;;5057447;28;20969;-80
2022/08/28 01:56:21;;;;;;;9.13;3.27;;;17.90;99.90;;;;;;5055175;28;20892;-82
2022/08/28 01:58:49;;;;;;;8.03;3.10;;;17.90;99.90;;;;;;5051939;28;20561;-80
2022/08/28 02:01:18;;;;;;;7.90;3.57;;;17.80;99.90;;;;;;5057346;28;20534;-81
2022/08/28 02:03:45;;;;;;;12.47;3.13;;;17.80;99.90;;;;;;5036799;28;20484;-81
2022/08/28 02:06:13;;;;;;;7.33;3.03;;;17.80;99.90;;;;;;5037550;28;20528;-81
2022/08/28 02:08:40;;;;;;;9.33;3.70;;;17.80;99.90;;;;;;5037767;28;20884;-80
2022/08/28 02:11:08;;;;;;;7.93;3.73;;;17.80;99.90;;;;;;5038038;28;20538;-82
2022/08/28 02:13:36;;;;;;;9.33;3.63;;;17.70;99.90;;;;;;5036745;28;21184;-81
2022/08/28 02:16:06;;;;;;;6.23;3.00;;;17.60;99.90;;;;;;5036883;28;20454;-82
2022/08/28 02:18:33;;;;;;;9.57;4.03;;;17.60;99.90;;;;;;5036573;28;20559;-82
2022/08/28 02:21:00;;;;;;;8.07;3.30;;;17.50;99.90;;;;;;5037471;28;20446;-81
2022/08/28 02:23:27;;;;;;;11.80;3.50;;;17.50;99.90;;;;;;5036733;28;20457;-80
2022/08/28 02:25:53;;;;;;;10.27;4.13;;;17.50;99.90;;;;;;5035849;28;20539;-83
2022/08/28 02:28:20;;;;;;;9.77;3.47;;;17.40;99.90;;;;;;5037224;28;20572;-82
2022/08/28 02:30:47;;;;;;;9.20;3.50;;;17.40;99.90;;;;;;5036625;28;20559;-81
2022/08/28 02:33:16;;;;;;;10.80;3.80;;;17.40;99.90;;;;;;5036460;28;20452;-81
2022/08/28 02:35:43;;;;;;;6.83;3.40;;;17.40;99.90;;;;;;5036639;28;20455;-79
2022/08/28 02:38:10;;;;;;;7.50;3.60;;;17.30;99.90;;;;;;5036670;28;20452;-81
2022/08/28 02:40:37;;;;;;;8.07;3.90;;;17.30;99.90;;;;;;5037491;28;21006;-79
2022/08/28 02:43:04;;;;;;;5.97;3.13;;;17.30;99.90;;;;;;5035509;28;20881;-79
2022/08/28 02:45:31;;;;;;;8.70;3.83;;;17.10;99.90;;;;;;5036056;28;20543;-80
2022/08/28 02:48:00;;;;;;;8.70;4.00;;;17.00;99.90;;;;;;5035042;28;20450;-80
2022/08/28 02:50:30;;;;;;;7.53;2.90;;;17.10;99.90;;;;;;5035846;28;20449;-81
2022/08/28 02:52:57;;;;;;;7.47;3.47;;;17.00;99.90;;;;;;5035005;28;20480;-82
2022/08/28 02:55:25;;;;;;;10.70;3.87;;;17.10;99.90;;;;;;5036369;28;20479;-80
2022/08/28 02:57:53;;;;;;;9.50;3.90;;;17.10;99.90;;;;;;5036666;28;20532;-80
2022/08/28 03:00:22;;;;;;;8.37;3.50;;;17.20;99.90;;;;;;5035515;28;20556;-80
2022/08/28 03:02:51;;;;;;;7.97;3.07;;;17.00;99.90;;;;;;5034767;28;20480;-81
2022/08/28 03:05:21;;;;;;;6.87;3.53;;;17.10;99.90;;;;;;5035551;28;20484;-79
2022/08/28 03:07:52;;;;;;;7.63;3.10;;;17.00;99.90;;;;;;5036332;28;20448;-79
2022/08/28 03:10:19;;;;;;;8.53;3.83;;;17.00;99.90;;;;;;5036296;28;20471;-80
2022/08/28 03:12:46;;;;;;;6.13;2.97;;;16.90;99.90;;;;;;5049782;28;20554;-80
2022/08/28 03:15:13;;;;;;;9.03;3.70;;;16.80;99.90;;;;;;5050296;28;20452;-81
2022/08/28 03:17:40;;;;;;;8.40;3.20;;;16.80;99.90;;;;;;5037710;28;20491;-81
2022/08/28 03:20:11;;;;;;;8.63;3.27;;;16.80;99.90;;;;;;5051070;28;20575;-80
2022/08/28 03:25:24;;;;;;;7.40;3.13;;;16.90;99.90;;;;;;5035531;28;20463;-80
2022/08/28 03:27:51;;;;;;;10.33;3.70;;;16.80;99.90;;;;;;5039804;28;20456;-79
2022/08/28 03:30:19;;;;;;;7.53;3.40;;;16.70;99.90;;;;;;5052631;28;20501;-82
2022/08/28 03:32:47;;;;;;;7.40;3.33;;;16.70;99.90;;;;;;5050265;28;20538;-81
2022/08/28 03:35:14;;;;;;;13.13;4.03;;;16.80;99.90;;;;;;5054047;28;20474;-80
2022/08/28 03:37:41;;;;;;;8.73;3.17;;;16.70;99.90;;;;;;5038819;28;20500;-81
2022/08/28 03:40:10;;;;;;;11.27;4.07;;;16.80;99.90;;;;;;5056330;28;21166;-82
2022/08/28 03:42:38;;;;;;;8.40;3.87;;;16.80;99.90;;;;;;5046889;28;20457;-82
2022/08/28 03:45:07;;;;;;;6.73;3.50;;;16.70;99.90;;;;;;5048159;28;20523;-79
2022/08/28 03:47:35;;;;;;;9.23;3.53;;;16.70;99.90;;;;;;5053301;28;20487;-80
2022/08/28 03:50:03;;;;;;;8.33;3.70;;;16.80;99.90;;;;;;5034477;28;20558;-78
2022/08/28 03:52:30;;;;;;;7.40;3.60;;;16.80;99.90;;;;;;5036095;28;20543;-79
2022/08/28 03:54:57;;;;;;;7.97;3.70;;;16.90;99.90;;;;;;5043987;28;20465;-81
2022/08/28 03:57:24;;;;;;;6.97;3.10;;;16.80;99.90;;;;;;5054900;28;20459;-78
2022/08/28 03:59:53;;;;;;;8.93;3.33;;;16.80;99.90;;;;;;5045549;28;20487;-81
2022/08/28 04:02:20;;;;;;;7.07;3.23;;;16.80;99.90;;;;;;5048237;28;20544;-79
2022/08/28 04:04:48;;;;;;;9.73;3.33;;;16.80;99.90;;;;;;5048608;28;20486;-78
2022/08/28 04:07:15;;;;;;;8.10;3.87;;;16.90;99.90;;;;;;5054611;28;20441;-79
2022/08/28 04:09:42;;;;;;;7.10;3.20;;;16.80;99.90;;;;;;5045261;28;20467;-79
2022/08/28 04:12:10;;;;;;;7.23;3.20;;;16.90;99.90;;;;;;5041093;28;20495;-79
2022/08/28 04:14:37;;;;;;;7.00;3.30;;;16.90;99.90;;;;;;5040603;28;20443;-78
2022/08/28 04:17:06;;;;;;;9.50;4.20;;;16.90;99.90;;;;;;5053331;28;20536;-81
2022/08/28 04:19:33;;;;;;;8.13;3.20;;;16.90;99.90;;;;;;5037162;28;20510;-78
2022/08/28 04:22:00;;;;;;;9.33;3.70;;;16.90;99.90;;;;;;5043933;28;20570;-81
2022/08/28 04:24:27;;;;;;;8.83;3.53;;;17.00;99.90;;;;;;5046430;28;20523;-79
2022/08/28 04:26:54;;;;;;;8.97;3.03;;;17.00;99.90;;;;;;5033161;28;20961;-79
2022/08/28 04:29:21;;;;;;;8.53;3.07;;;17.00;99.90;;;;;;5043726;28;20500;-80
2022/08/28 04:31:49;;;;;;;9.80;3.60;;;17.00;99.90;;;;;;5050105;28;20454;-81
2022/08/28 04:34:17;;;;;;;7.27;3.50;;;16.90;99.90;;;;;;5049005;28;20476;-78
2022/08/28 04:36:45;;;;;;;7.73;3.27;;;16.90;99.90;;;;;;5032522;28;20452;-79
2022/08/28 04:39:12;;;;;;;11.57;3.30;;;16.90;99.90;;;;;;5044548;28;21102;-79
2022/08/28 04:41:39;;;;;;;8.53;3.53;;;16.90;99.90;;;;;;5052659;28;20452;-79
2022/08/28 04:44:06;;;;;;;9.50;3.43;;;16.90;99.90;;;;;;5049572;28;20454;-81
2022/08/28 04:46:33;;;;;;;8.43;3.30;;;16.90;99.90;;;;;;5043961;28;20898;-79
2022/08/28 04:49:00;;;;;;;8.57;3.60;;;16.90;99.90;;;;;;5044128;28;20514;-78
2022/08/28 04:51:28;;;;;;;7.37;3.20;;;16.90;99.90;;;;;;5050115;28;20620;-80
2022/08/28 04:53:55;;;;;;;9.10;3.40;;;16.80;99.90;;;;;;5048749;28;20472;-82
2022/08/28 04:56:23;;;;;;;11.03;3.60;;;16.90;99.90;;;;;;5052480;28;20521;-79
2022/08/28 04:58:49;;;;;;;8.40;3.50;;;16.90;99.90;;;;;;5046898;28;20544;-80
2022/08/28 05:01:19;;;;;;;7.50;2.83;;;16.90;99.90;;;;;;5047209;28;20486;-80
2022/08/28 05:03:47;;;;;;;10.73;3.43;;;16.80;99.90;;;;;;5051001;28;20535;-81
2022/08/28 05:06:15;;;;;;;6.20;3.73;;;16.80;99.90;;;;;;5052282;28;20451;-79
2022/08/28 05:08:44;;;;;;;10.10;3.80;;;16.80;99.90;;;;;;5045661;28;20847;-80
2022/08/28 05:11:13;;;;;;;7.93;3.03;;;16.70;99.90;;;;;;5037878;28;20535;-79
2022/08/28 05:13:40;;;;;;;5.23;2.80;;;16.80;99.90;;;;;;5034322;28;20455;-79
2022/08/28 05:16:07;;;;;;;7.63;3.20;;;16.70;99.90;;;;;;5053629;28;20475;-80
2022/08/28 05:18:34;;;;;;;10.90;3.90;;;16.70;99.90;;;;;;5042156;28;20539;-79
2022/08/28 05:21:02;;;;;;;10.93;5.07;;;16.70;99.90;;;;;;5045346;28;20475;-80
2022/08/28 05:23:29;;;;;;;8.70;3.50;;;16.70;99.90;;;;;;5053415;28;20525;-81
2022/08/28 05:25:58;;;;;;;8.67;3.33;;;16.70;99.90;;;;;;5046189;28;20452;-80
2022/08/28 05:28:25;;;;;;;8.60;2.80;;;16.80;99.90;;;;;;5055244;28;20466;-79
2022/08/28 05:30:52;;;;;;;4.93;2.67;;;16.80;99.90;;;;;;5044564;28;20479;-78
2022/08/28 05:33:19;;;;;;;6.53;3.10;;;16.80;99.90;;;;;;5034910;28;20463;-81
2022/08/28 05:35:47;;;;;;;10.10;3.47;;;16.80;99.90;;;;;;5045161;28;20466;-80
2022/08/28 05:38:16;;;;;;;9.47;2.90;;;16.80;99.90;;;;;;5052716;28;20450;-80
2022/08/28 05:40:45;;;;;;;11.03;3.27;;;16.90;99.90;;;;;;5046389;28;20475;-80
2022/08/28 05:43:15;;;;;;;5.40;2.83;;;16.80;99.90;;;;;;5057978;28;20472;-84
2022/08/28 05:45:42;;;;;;;5.73;3.10;;;16.80;99.90;;;;;;5042397;28;20436;-80
2022/08/28 05:48:10;;;;;;;7.93;2.63;;;16.80;99.90;;;;;;5035610;28;20524;-80
2022/08/28 05:50:38;;;;;;;6.93;2.67;;;16.90;99.90;;;;;;5032659;28;20449;-78
2022/08/28 05:53:05;;;;;;;12.53;4.20;;;16.90;99.90;;;;;;5044370;28;20461;-79
2022/08/28 05:55:32;;;;;;;9.17;3.83;;;16.80;99.90;;;;;;5051964;28;20453;-79
2022/08/28 05:58:27;;;;;;;7.43;3.10;;;16.70;99.90;;;;;;5041097;28;20508;-79
2022/08/28 06:00:47;;;;;;;6.57;3.17;;;16.70;99.90;;;;;;5053992;27;20478;-80
2022/08/28 06:03:14;;;;;;;7.47;4.13;;;16.80;99.90;;;;;;5040585;28;20536;-81
2022/08/28 06:05:41;;;;;;;8.63;3.27;;;16.70;99.90;;;;;;5034201;28;20441;-79
2022/08/28 06:08:08;;;;;;;8.50;3.30;;;16.80;99.90;;;;;;5043196;28;20459;-80
2022/08/28 06:10:42;;;;;;;9.87;3.60;;;16.70;99.90;;;;;;5034486;28;21028;-79
2022/08/28 06:13:09;;;;;;;6.00;2.73;;;16.70;99.90;;;;;;5045617;28;20523;-79
2022/08/28 06:15:41;;;;;;;13.50;3.07;;;16.80;99.90;;;;;;5055812;28;20825;-80
2022/08/28 06:18:11;;;;;;;7.40;2.60;;;16.80;99.90;;;;;;5051180;28;20456;-79
2022/08/28 06:20:40;;;;;;;7.67;3.20;;;16.90;99.90;;;;;;5056218;28;20478;-79
2022/08/28 06:23:07;;;;;;;6.53;2.90;;;16.80;99.90;;;;;;5043482;28;20464;-80
2022/08/28 06:25:37;;;;;;;10.13;3.20;;;17.00;99.90;;;;;;5035419;28;20990;-80
2022/08/28 06:28:04;;;;;;;12.57;2.87;;;17.00;99.90;;;;;;5053729;23;20525;-83
2022/08/28 06:30:31;;;;;;;9.63;3.00;;;17.10;99.90;;;;;;5032270;28;20445;-83
2022/08/28 06:32:58;;;;;;;7.97;3.30;;;17.20;99.90;;;;;;5033185;28;20509;-83
2022/08/28 06:35:26;;;;;;;9.07;2.80;;;17.20;99.90;;;;;;5038912;28;20504;-83
2022/08/28 06:37:53;;;;;;;10.10;3.00;;;17.30;99.90;;;;;;5035396;28;20527;-83
2022/08/28 06:40:19;;;;;;;4.27;2.30;;;17.30;99.90;;;;;;5030891;28;20491;-85
2022/08/28 06:42:46;;;;;;;7.93;3.00;;;17.40;99.90;;;;;;5007996;28;20489;-82
2022/08/28 06:45:13;;;;;;;10.43;2.90;;;17.40;99.90;;;;;;5003702;28;20536;-81
2022/08/28 06:47:40;;;;;;;9.10;2.73;;;17.40;99.90;;;;;;5031600;28;20469;-86
2022/08/28 06:50:08;;;;;;;9.03;3.00;;;17.50;99.90;;;;;;5016625;28;20443;-82
2022/08/28 06:52:36;;;;;;;5.97;2.80;;;17.50;99.90;;;;;;5014334;28;20548;-84
2022/08/28 06:55:03;;;;;;;7.20;3.27;;;17.60;99.90;;;;;;5011801;28;20586;-83
2022/08/28 06:57:30;;;;;;;8.00;2.70;;;17.60;99.90;;;;;;5023473;28;20542;-85
2022/08/28 06:59:58;;;;;;;7.43;2.53;;;17.70;99.90;;;;;;5014711;28;21043;-84
2022/08/28 07:02:25;;;;;;;12.47;2.47;;;17.60;99.90;;;;;;5013590;28;20457;-84
2022/08/28 07:04:52;;;;;;;7.97;2.57;;;17.60;99.90;;;;;;5026869;28;20450;-83
2022/08/28 07:07:19;;;;;;;7.83;2.53;;;17.50;99.90;;;;;;5027316;28;20932;-83
2022/08/28 07:09:48;;;;;;;7.27;2.77;;;17.60;99.90;;;;;;5014099;28;20451;-82
2022/08/28 07:12:15;;;;;;;6.90;2.30;;;17.70;99.90;;;;;;5012256;28;20532;-82
2022/08/28 07:14:42;;;;;;;7.60;2.50;;;17.70;99.90;;;;;;5012353;28;20488;-83
2022/08/28 07:17:09;;;;;;;7.87;2.53;;;17.70;99.90;;;;;;5009626;28;20538;-86
2022/08/28 07:19:36;;;;;;;6.70;2.47;;;17.70;99.90;;;;;;5009694;28;20457;-82
2022/08/28 07:22:04;;;;;;;9.73;2.40;;;17.70;99.90;;;;;;5011419;28;20548;-85
2022/08/28 07:24:31;;;;;;;9.43;2.60;;;17.80;99.90;;;;;;5014327;28;20474;-85
2022/08/28 07:26:59;;;;;;;8.40;3.80;;;17.80;99.90;;;;;;5013711;28;20496;-83
2022/08/28 07:29:26;;;;;;;7.80;2.73;;;17.80;99.90;;;;;;5012656;28;20949;-82
2022/08/28 07:31:54;;;;;;;6.20;3.30;;;17.90;99.90;;;;;;5013791;28;20537;-84
2022/08/28 07:34:22;;;;;;;4.20;1.90;;;17.90;99.90;;;;;;5019922;28;20498;-83
2022/08/28 07:36:51;;;;;;;8.90;2.80;;;17.90;99.90;;;;;;5034268;28;21040;-83
2022/08/28 07:39:19;;;;;;;5.53;1.93;;;18.00;99.90;;;;;;5033513;28;20481;-84
2022/08/28 07:41:47;;;;;;;8.80;2.50;;;18.10;99.90;;;;;;5033379;28;20577;-84
2022/08/28 07:47:10;;;;;;;6.17;2.70;;;18.00;99.90;;;;;;4997245;28;20452;-84
2022/08/28 07:49:38;;;;;;;11.00;2.77;;;18.00;99.90;;;;;;5033004;28;20467;-84
2022/08/28 07:52:06;;;;;;;9.23;2.60;;;18.00;99.90;;;;;;5031441;28;20450;-83
2022/08/28 07:54:34;;;;;;;8.70;2.30;;;18.00;99.90;;;;;;5016120;28;20489;-85
2022/08/28 07:57:02;;;;;;;9.03;2.70;;;18.00;99.90;;;;;;5033052;28;20865;-83
2022/08/28 07:59:30;;;;;;;6.90;2.60;;;18.20;99.90;;;;;;5017485;28;20468;-84
2022/08/28 08:01:57;;;;;;;9.67;2.60;;;18.30;99.90;;;;;;5012979;28;20586;-85
2022/08/28 08:04:25;;;;;;;5.80;2.20;;;18.50;99.90;;;;;;5029761;28;20457;-84
2022/08/28 08:06:53;;;;;;;7.00;2.20;;;18.50;99.90;;;;;;5015450;28;20487;-84
2022/08/28 08:09:22;;;;;;;6.97;2.87;;;18.60;99.90;;;;;;5012916;28;20466;-82
2022/08/28 08:11:49;;;;;;;6.70;2.50;;;18.70;99.90;;;;;;5012329;28;20486;-82
2022/08/28 08:14:17;;;;;;;11.60;2.60;;;18.90;99.90;;;;;;5014064;28;20531;-83
2022/08/28 08:16:46;;;;;;;7.60;2.23;;;19.10;99.90;;;;;;5012083;28;20477;-84
2022/08/28 08:19:14;;;;;;;11.53;2.10;;;19.30;99.90;;;;;;5021592;28;21042;-82
2022/08/28 08:21:42;;;;;;;8.43;2.03;;;19.40;99.90;;;;;;5032131;28;20487;-82
2022/08/28 08:24:10;;;;;;;8.00;2.40;;;19.60;99.90;;;;;;5015546;28;20461;-82
2022/08/28 08:26:44;;;;;;;7.10;2.13;;;19.60;99.90;;;;;;5012045;28;20444;-82
2022/08/28 08:29:11;;;;;;;6.77;2.30;;;19.50;99.90;;;;;;5014732;28;20839;-82
2022/08/28 08:31:41;;;;;;;5.87;2.00;;;19.40;99.90;;;;;;5022942;28;20443;-82
2022/08/28 08:34:10;;;;;;;8.57;2.53;;;19.50;99.90;;;;;;5019732;28;20448;-83
2022/08/28 08:36:38;;;;;;;9.00;1.63;;;19.40;99.90;;;;;;5012904;28;20531;-83
2022/08/28 08:39:06;;;;;;;7.30;2.40;;;19.50;99.90;;;;;;5011385;28;20556;-83
2022/08/28 08:44:45;;;;;;;10.57;2.83;;;19.30;99.90;;;;;;5005154;28;20452;-82
2022/08/28 08:49:48;;;;;;;6.77;2.53;;;19.90;99.90;;;;;;5004148;23;20504;-84
2022/08/28 08:53:01;;;;;;;8.17;1.90;;;20.20;99.90;;;;;;5001668;28;20544;-84
2022/08/28 08:55:34;;;;;;;7.93;2.50;;;20.40;99.90;;;;;;5041509;28;20443;-83
2022/08/28 08:58:20;;;;;;;9.40;2.50;;;20.50;99.90;;;;;;5005384;28;20481;-83
2022/08/28 09:00:53;;;;;;;9.60;3.00;;;20.20;99.90;;;;;;4981980;28;21056;-82
2022/08/28 09:03:25;;;;;;;9.20;2.90;;;20.50;99.90;;;;;;4981948;28;20450;-82
2022/08/28 09:05:57;;;;;;;6.80;2.60;;;20.70;99.90;;;;;;4984797;28;20881;-83
2022/08/28 09:08:35;;;;;;;8.27;2.30;;;20.80;99.90;;;;;;4986664;28;20474;-84
2022/08/28 09:11:15;;;;;;;5.30;2.17;;;20.90;99.90;;;;;;4990883;28;20938;-82
2022/08/28 09:14:06;;;;;;;7.80;2.43;;;21.10;99.90;;;;;;4990634;28;20442;-84
2022/08/28 09:16:38;;;;;;;7.90;2.50;;;21.00;99.90;;;;;;4998998;28;20816;-84
2022/08/28 09:19:08;;;;;;;10.00;1.90;;;20.80;99.90;;;;;;4991860;28;20470;-85
2022/08/28 09:21:43;;;;;;;7.70;2.30;;;21.00;99.90;;;;;;4992167;28;20491;-84
2022/08/28 09:24:17;;;;;;;6.37;2.23;;;21.10;99.90;;;;;;4990280;28;20454;-85
2022/08/28 09:26:51;;;;;;;4.93;2.43;;;21.20;99.90;;;;;;4991680;28;20463;-84
2022/08/28 09:29:23;;;;;;;8.63;2.80;;;21.50;99.90;;;;;;4991482;28;20473;-85
2022/08/28 09:31:50;;;;;;;8.10;2.57;;;21.40;99.90;;;;;;4991914;28;20517;-85
2022/08/28 09:34:27;;;;;;;5.50;2.20;;;21.70;99.90;;;;;;4991056;28;20454;-85
2022/08/28 09:36:57;;;;;;;10.53;2.50;;;22.10;99.90;;;;;;4991571;28;20474;-84
2022/08/28 09:39:25;;;;;;;5.07;2.07;;;22.40;99.90;;;;;;5042442;23;20935;-84
2022/08/28 09:44:58;;;;;;;7.53;2.20;;;23.00;99.90;;;;;;5012057;28;20563;-84
2022/08/28 09:47:44;;;;;;;7.30;3.07;;;23.40;99.90;;;;;;5010107;28;21167;-85
2022/08/28 09:50:35;;;;;;;5.77;2.33;;;23.40;99.90;;;;;;5009497;28;20453;-85
2022/08/28 09:53:19;;;;;;;5.57;2.23;;;23.30;99.90;;;;;;5012973;28;20539;-84
2022/08/28 09:55:55;;;;;;;8.90;2.40;;;23.10;99.90;;;;;;5029602;28;20528;-85
2022/08/28 09:58:23;;;;;;;7.00;2.43;;;23.00;99.90;;;;;;5023133;28;20531;-84
2022/08/28 10:00:56;;;;;;;7.70;2.33;;;22.80;99.90;;;;;;5029281;28;20472;-85
2022/08/28 10:03:30;;;;;;;7.83;2.60;;;22.60;99.90;;;;;;5031724;28;20928;-85
2022/08/28 10:06:03;;;;;;;11.57;2.90;;;22.30;99.90;;;;;;5032935;28;20441;-83
2022/08/28 10:08:50;;;;;;;9.33;2.37;;;22.30;99.90;;;;;;5031553;28;20968;-84
2022/08/28 10:11:25;;;;;;;7.30;2.03;;;22.60;99.90;;;;;;5032400;28;20964;-84
2022/08/28 10:13:59;;;;;;;5.87;2.10;;;23.00;99.90;;;;;;5031244;28;21116;-85
2022/08/28 10:16:33;;;;;;;7.53;2.47;;;23.30;99.90;;;;;;5031997;28;20876;-84
2022/08/28 10:19:09;;;;;;;6.13;2.50;;;23.50;99.90;;;;;;5031146;28;20464;-84
2022/08/28 10:21:43;;;;;;;7.77;2.40;;;23.80;99.90;;;;;;5036458;28;20487;-85
2022/08/28 10:24:30;;;;;;;8.57;2.63;;;24.00;99.90;;;;;;5034052;28;20475;-85
2022/08/28 10:27:06;;;;;;;7.37;2.33;;;23.70;99.90;;;;;;5031679;28;20429;-85
2022/08/28 10:29:47;;;;;;;9.00;2.60;;;24.00;99.90;;;;;;5030929;28;20568;-84
2022/08/28 10:32:28;;;;;;;8.00;2.03;;;24.30;99.90;;;;;;5032243;28;20877;-85
2022/08/28 10:35:03;;;;;;;8.07;2.50;;;24.50;99.90;;;;;;5031023;28;20449;-85
2022/08/28 10:37:40;;;;;;;10.57;2.33;;;24.60;99.90;;;;;;5031431;28;20525;-85
2022/08/28 10:40:15;;;;;;;5.83;2.40;;;24.90;99.90;;;;;;5030966;28;20945;-85
2022/08/28 10:42:48;;;;;;;6.30;2.50;;;24.70;99.90;;;;;;5031676;28;20574;-84
2022/08/28 10:45:18;;;;;;;6.63;2.53;;;24.10;99.90;;;;;;5031044;28;20452;-85
2022/08/28 10:47:49;;;;;;;5.63;2.27;;;23.70;99.90;;;;;;5031424;28;21079;-85
2022/08/28 10:50:21;;;;;;;4.83;1.73;;;23.60;99.90;;;;;;5032182;28;20484;-84
2022/08/28 10:52:56;;;;;;;5.03;1.83;;;24.10;99.90;;;;;;5031394;28;20956;-85
2022/08/28 10:55:31;;;;;;;6.33;1.93;;;24.50;99.90;;;;;;5030557;28;20509;-85
2022/08/28 10:58:02;;;;;;;9.20;2.60;;;24.70;99.90;;;;;;5038636;28;20464;-87
2022/08/28 11:00:29;;;;;;;5.60;2.10;;;24.70;99.90;;;;;;5032816;28;20481;-84
2022/08/28 11:03:01;;;;;;;6.80;2.40;;;24.50;99.90;;;;;;5031332;28;21016;-84
2022/08/28 11:05:31;;;;;;;8.30;2.10;;;24.80;99.90;;;;;;5032700;28;20457;-84
2022/08/28 11:08:02;;;;;;;7.60;2.17;;;25.20;99.90;;;;;;5031009;28;20917;-84
2022/08/28 11:10:48;;;;;;;5.93;2.00;;;25.40;99.90;;;;;;5032392;28;20445;-85
2022/08/28 11:13:40;;;;;;;5.20;1.93;;;25.40;99.90;;;;;;5030548;28;20447;-85
2022/08/28 11:16:12;;;;;;;4.57;2.00;;;25.30;99.90;;;;;;5031892;28;20483;-85
2022/08/28 11:19:02;;;;;;;8.10;2.70;;;25.60;99.90;;;;;;5031575;28;20547;-86
2022/08/28 11:21:35;;;;;;;7.17;1.80;;;25.20;99.90;;;;;;5030530;28;21009;-85
2022/08/28 11:24:07;;;;;;;3.77;2.00;;;25.00;99.90;;;;;;5029985;28;20445;-84
2022/08/28 11:26:41;;;;;;;8.40;2.53;;;25.60;99.90;;;;;;5032041;28;20448;-85
2022/08/28 11:29:08;;;;;;;5.37;2.00;;;25.50;99.90;;;;;;5031730;28;20502;-85
2022/08/28 11:31:39;;;;;;;4.23;2.17;;;25.70;99.90;;;;;;5031060;28;20466;-85
2022/08/28 11:34:07;;;;;;;3.80;1.60;;;25.80;99.90;;;;;;5030557;28;20535;-86
2022/08/28 11:36:58;;;;;;;6.03;1.90;;;25.90;99.90;;;;;;5031343;28;20443;-84
2022/08/28 11:39:25;;;;;;;5.33;2.17;;;25.70;99.90;;;;;;5031412;28;20480;-85
2022/08/28 11:42:31;;;;;;;4.50;1.70;;;25.00;99.90;;;;;;5030434;28;20495;-85
2022/08/28 11:45:00;;;;;;;4.50;1.70;;;25.00;99.90;;;;;;5030448;28;20956;-85
2022/08/28 11:47:45;;;;;;;5.10;1.90;;;25.30;99.90;;;;;;5030514;28;20482;-85
2022/08/28 11:50:20;;;;;;;4.67;2.30;;;25.50;99.90;;;;;;5031862;28;20452;-85
2022/08/28 11:53:30;;;;;;;5.33;1.87;;;25.60;99.90;;;;;;5031641;28;20535;-85
2022/08/28 11:56:33;;;;;;;9.37;2.90;;;25.90;99.90;;;;;;5012920;28;20460;-84
2022/08/28 11:59:16;;;;;;;5.70;1.80;;;26.50;99.90;;;;;;5046360;28;20567;-86
2022/08/28 12:01:44;;;;;;;7.43;2.03;;;26.90;99.90;;;;;;5030340;28;20481;-84
2022/08/28 12:04:13;;;;;;;4.20;1.90;;;27.10;99.90;;;;;;5029027;28;20445;-85
2022/08/28 12:06:51;;;;;;;6.33;2.23;;;27.20;99.90;;;;;;5030810;28;20822;-84
2022/08/28 12:09:39;;;;;;;5.70;2.03;;;26.80;99.90;;;;;;5029973;28;20564;-84
2022/08/28 12:12:12;;;;;;;6.70;1.87;;;26.90;99.90;;;;;;5029856;28;20565;-84
2022/08/28 12:15:08;;;;;;;3.80;1.67;;;26.90;99.90;;;;;;5028961;28;20453;-84
2022/08/28 12:17:51;;;;;;;5.33;2.00;;;27.30;99.90;;;;;;5029464;28;20556;-85
2022/08/28 12:20:35;;;;;;;5.70;1.73;;;27.90;99.90;;;;;;5028958;28;20576;-86
2022/08/28 12:23:04;;;;;;;6.90;1.67;;;28.30;99.90;;;;;;5029184;28;20523;-85
2022/08/28 12:25:35;;;;;;;6.67;1.70;;;28.50;99.90;;;;;;5030995;27;20457;-86
2022/08/28 12:28:14;;;;;;;11.33;2.30;;;28.30;99.90;;;;;;5030403;28;20492;-84
2022/08/28 12:30:48;;;;;;;5.50;1.93;;;27.70;99.90;;;;;;5030309;28;20607;-85
2022/08/28 12:33:24;;;;;;;7.40;2.30;;;27.30;99.90;;;;;;5029960;28;20518;-85
2022/08/28 12:35:51;;;;;;;4.97;1.63;;;27.10;99.90;;;;;;5030591;28;20539;-85
2022/08/28 12:38:20;;;;;;;6.30;1.60;;;27.40;99.90;;;;;;5029829;28;20927;-84
2022/08/28 12:40:53;;;;;;;8.63;1.97;;;27.60;99.90;;;;;;5039790;28;20477;-86
2022/08/28 12:43:30;;;;;;;5.60;1.67;;;28.30;99.90;;;;;;5032748;28;20503;-85
2022/08/28 12:46:00;;;;;;;5.43;1.40;;;28.30;99.90;;;;;;5032408;28;20956;-85
2022/08/28 12:48:31;;;;;;;6.00;1.67;;;28.50;99.90;;;;;;5032640;28;20477;-85
2022/08/28 12:51:02;;;;;;;5.30;2.03;;;28.80;99.90;;;;;;5032255;28;20928;-86
2022/08/28 12:53:38;;;;;;;8.23;1.90;;;29.10;99.90;;;;;;5030554;28;20811;-86
2022/08/28 12:56:09;;;;;;;5.83;1.70;;;29.50;99.90;;;;;;5031849;28;20433;-85
2022/08/28 12:58:38;;;;;;;4.97;1.70;;;29.90;99.90;;;;;;5031012;28;20816;-86
2022/08/28 13:01:09;;;;;;;5.17;2.03;;;29.50;99.90;;;;;;5031031;28;20937;-85
2022/08/28 13:03:44;;;;;;;3.77;1.60;;;29.30;99.90;;;;;;5030398;28;20493;-85
2022/08/28 13:06:11;;;;;;;5.27;1.73;;;29.30;99.90;;;;;;5030465;28;20461;-86
2022/08/28 13:08:39;;;;;;;7.10;2.00;;;28.60;99.90;;;;;;5029820;28;20469;-86
2022/08/28 13:11:06;;;;;;;10.63;1.87;;;28.50;99.90;;;;;;5030145;28;20492;-86
2022/08/28 13:13:37;;;;;;;5.03;1.90;;;28.40;99.90;;;;;;5030371;28;20498;-85
2022/08/28 13:16:05;;;;;;;3.93;1.63;;;28.70;99.90;;;;;;5030474;28;20535;-84
2022/08/28 13:19:09;;;;;;;4.30;1.40;;;28.70;99.90;;;;;;5030146;28;20508;-85
2022/08/28 13:21:38;;;;;;;4.53;1.60;;;28.30;99.90;;;;;;5029800;28;20480;-85
2022/08/28 13:24:26;;;;;;;5.50;1.63;;;28.60;99.90;;;;;;5029471;28;20507;-85